createdAt,value
2024-01-05T00:00:48.429Z,3.80
2024-01-05T00:03:10.147Z,3.50
2024-01-05T00:05:31.605Z,6.03
2024-01-05T00:07:52.765Z,3.57
2024-01-05T00:10:14.402Z,3.80
2024-01-05T00:12:37.491Z,4.60
2024-01-05T00:14:58.975Z,3.73
2024-01-05T00:17:20.181Z,3.57
2024-01-05T00:19:42.647Z,3.57
2024-01-05T00:22:04.348Z,3.53
2024-01-05T00:24:25.717Z,4.17
2024-01-05T00:26:47.099Z,4.60
2024-01-05T00:29:09.794Z,3.70
2024-01-05T00:31:31.266Z,3.40
2024-01-05T00:33:53.027Z,4.17
2024-01-05T00:36:14.616Z,4.67
2024-01-05T00:38:36.835Z,4.30
2024-01-05T00:40:58.358Z,3.27
2024-01-05T00:43:19.682Z,3.90
2024-01-05T00:45:42.463Z,3.47
2024-01-05T00:48:04.564Z,3.87
2024-01-05T00:50:26.074Z,3.40
2024-01-05T00:52:47.404Z,3.90
2024-01-05T00:55:09.122Z,4.03
2024-01-05T00:57:30.573Z,3.17
2024-01-05T00:59:52.096Z,3.40
2024-01-05T01:02:15.017Z,4.47
2024-01-05T01:04:36.516Z,3.10
2024-01-05T01:06:58.357Z,4.13
2024-01-05T01:09:19.872Z,3.13
2024-01-05T01:11:41.220Z,3.50
2024-01-05T01:14:02.520Z,3.47
2024-01-05T01:16:23.977Z,4.80
2024-01-05T01:18:46.669Z,3.70
2024-01-05T01:21:08.198Z,3.60
2024-01-05T01:23:29.715Z,3.53
2024-01-05T01:25:51.369Z,3.60
2024-01-05T01:28:12.766Z,3.50
2024-01-05T01:30:34.097Z,4.63
2024-01-05T01:32:55.333Z,3.63
2024-01-05T01:35:17.965Z,3.40
2024-01-05T01:37:39.295Z,3.20
2024-01-05T01:40:00.696Z,3.20
2024-01-05T01:42:21.894Z,3.47
2024-01-05T01:44:43.386Z,3.80
2024-01-05T01:47:05.046Z,3.50
2024-01-05T01:49:27.183Z,3.70
2024-01-05T01:51:50.493Z,3.47
2024-01-05T01:54:12.725Z,3.50
2024-01-05T01:56:35.178Z,3.20
2024-01-05T01:58:56.999Z,3.67
2024-01-05T02:01:18.630Z,3.20
2024-01-05T02:03:40.042Z,3.00
2024-01-05T02:06:01.988Z,3.23
2024-01-05T02:08:25.208Z,2.93
2024-01-05T02:10:46.612Z,3.40
2024-01-05T02:13:07.863Z,3.20
2024-01-05T02:15:29.195Z,3.23
2024-01-05T02:17:50.736Z,3.33
2024-01-05T02:20:12.514Z,3.30
2024-01-05T02:22:35.544Z,2.87
2024-01-05T02:24:58.905Z,3.30
2024-01-05T02:27:20.497Z,3.20
2024-01-05T02:29:42.006Z,3.00
2024-01-05T02:32:03.264Z,3.23
2024-01-05T02:34:24.671Z,3.03
2024-01-05T02:36:46.490Z,3.00
2024-01-05T02:39:08.121Z,3.33
2024-01-05T02:41:30.786Z,3.13
2024-01-05T02:43:52.103Z,3.43
2024-01-05T02:46:13.519Z,2.87
2024-01-05T02:48:35.114Z,3.00
2024-01-05T02:50:56.987Z,3.37
2024-01-05T02:53:18.595Z,3.30
2024-01-05T02:55:39.894Z,3.13
2024-01-05T02:58:04.048Z,3.03
2024-01-05T03:00:25.690Z,2.87
2024-01-05T03:02:47.150Z,3.33
2024-01-05T03:05:09.221Z,3.00
2024-01-05T03:07:30.677Z,2.97
2024-01-05T03:09:52.072Z,3.10
2024-01-05T03:12:13.563Z,2.97
2024-01-05T03:14:36.563Z,3.10
2024-01-05T03:16:58.626Z,3.00
2024-01-05T03:19:20.297Z,3.37
2024-01-05T03:21:41.705Z,3.30
2024-01-05T03:24:04.066Z,2.60
2024-01-05T03:26:25.395Z,2.60
2024-01-05T03:28:46.692Z,3.10
2024-01-05T03:31:15.010Z,2.67
2024-01-05T03:33:36.521Z,3.00
2024-01-05T03:35:57.942Z,2.90
2024-01-05T03:38:19.851Z,2.63
2024-01-05T03:40:41.215Z,2.70
2024-01-05T03:43:02.632Z,2.50
2024-01-05T03:45:24.076Z,2.90
2024-01-05T03:47:46.874Z,2.90
2024-01-05T03:50:09.785Z,2.90
2024-01-05T03:52:30.987Z,2.97
2024-01-05T03:54:52.368Z,3.10
2024-01-05T03:57:13.771Z,3.00
2024-01-05T03:59:34.924Z,3.00
2024-01-05T04:01:56.193Z,3.10
2024-01-05T04:04:19.350Z,2.70
2024-01-05T04:06:42.008Z,2.97
2024-01-05T04:09:04.936Z,2.97
2024-01-05T04:11:27.014Z,2.90
2024-01-05T04:13:48.378Z,3.00
2024-01-05T04:16:09.793Z,2.77
2024-01-05T04:18:31.744Z,2.90
2024-01-05T04:20:54.609Z,2.73
2024-01-05T04:23:15.927Z,2.53
2024-01-05T04:25:37.131Z,2.50
2024-01-05T04:27:59.864Z,2.50
2024-01-05T04:30:22.250Z,2.50
2024-01-05T04:32:43.994Z,2.77
2024-01-05T04:36:46.360Z,2.87
2024-01-05T04:39:08.115Z,2.60
2024-01-05T04:41:29.839Z,2.73
2024-01-05T04:43:51.647Z,2.57
2024-01-05T04:46:13.100Z,3.10
2024-01-05T04:48:34.530Z,3.00
2024-01-05T04:50:56.482Z,2.73
2024-01-05T04:53:19.162Z,2.80
2024-01-05T04:55:40.425Z,2.60
2024-01-05T04:58:01.730Z,2.73
2024-01-05T05:00:23.398Z,2.80
2024-01-05T05:02:45.849Z,2.53
2024-01-05T05:05:07.225Z,2.70
2024-01-05T05:07:28.773Z,2.80
2024-01-05T05:09:51.558Z,2.70
2024-01-05T05:12:12.029Z,2.60
2024-01-05T05:14:33.333Z,2.80
2024-01-05T05:16:54.666Z,2.73
2024-01-05T05:19:16.085Z,2.90
2024-01-05T05:21:37.929Z,2.57
2024-01-05T05:23:59.449Z,2.60
2024-01-05T05:26:22.158Z,2.80
2024-01-05T05:28:43.426Z,2.30
2024-01-05T05:31:05.206Z,2.30
2024-01-05T05:33:26.865Z,2.77
2024-01-05T05:35:48.655Z,2.47
2024-01-05T05:38:10.212Z,3.10
2024-01-05T05:40:32.657Z,2.60
2024-01-05T05:42:55.545Z,2.20
2024-01-05T05:45:17.199Z,2.80
2024-01-05T05:47:38.922Z,2.70
2024-01-05T05:50:00.252Z,2.70
2024-01-05T05:52:22.074Z,2.30
2024-01-05T05:54:44.384Z,2.60
2024-01-05T05:57:08.358Z,2.60
2024-01-05T05:59:31.510Z,2.30
2024-01-05T06:01:53.153Z,2.40
2024-01-05T06:04:14.861Z,2.70
2024-01-05T06:06:36.688Z,2.70
2024-01-05T06:08:58.242Z,2.63
2024-01-05T06:11:20.266Z,2.40
2024-01-05T06:13:41.808Z,2.47
2024-01-05T06:16:04.723Z,2.53
2024-01-05T06:18:27.313Z,2.77
2024-01-05T06:20:48.442Z,3.17
2024-01-05T06:23:09.805Z,2.27
2024-01-05T06:25:31.118Z,2.30
2024-01-05T06:27:52.633Z,2.23
2024-01-05T06:30:14.823Z,2.47
2024-01-05T06:32:39.196Z,2.70
2024-01-05T06:35:01.069Z,2.40
2024-01-05T06:37:22.453Z,2.80
2024-01-05T06:39:43.921Z,2.20
2024-01-05T06:42:08.944Z,2.17
2024-01-05T06:44:30.564Z,2.50
2024-01-05T06:46:52.293Z,2.27
2024-01-05T06:49:15.223Z,2.60
2024-01-05T06:51:40.685Z,2.73
2024-01-05T06:54:02.015Z,2.40
2024-01-05T06:56:23.256Z,2.50
2024-01-05T06:58:44.579Z,2.40
2024-01-05T07:01:06.179Z,2.40
2024-01-05T07:03:27.814Z,2.40
2024-01-05T07:05:50.342Z,2.43
2024-01-05T07:08:11.945Z,2.30
2024-01-05T07:10:33.562Z,2.20
2024-01-05T07:12:54.833Z,2.27
2024-01-05T07:15:16.976Z,2.20
2024-01-05T07:17:38.763Z,2.73
2024-01-05T07:19:59.989Z,2.40
2024-01-05T07:22:23.106Z,2.63
2024-01-05T07:24:44.381Z,2.30
2024-01-05T07:27:06.664Z,2.17
2024-01-05T07:29:28.108Z,2.50
2024-01-05T07:31:49.288Z,2.20
2024-01-05T07:34:10.662Z,2.20
2024-01-05T07:36:32.509Z,2.10
2024-01-05T07:38:59.998Z,2.20
2024-01-05T07:41:21.681Z,2.60
2024-01-05T07:43:43.309Z,2.20
2024-01-05T07:46:04.891Z,2.00
2024-01-05T07:48:26.482Z,2.50
2024-01-05T07:50:48.133Z,2.60
2024-01-05T07:53:09.525Z,2.70
2024-01-05T07:55:31.491Z,2.53
2024-01-05T07:57:52.917Z,2.47
2024-01-05T08:00:14.920Z,2.20
2024-01-05T08:02:36.355Z,2.30
2024-01-05T08:04:57.724Z,2.30
2024-01-05T08:07:19.170Z,2.33
2024-01-05T08:09:43.292Z,2.23
2024-01-05T08:12:06.628Z,2.50
2024-01-05T08:14:28.266Z,2.17
2024-01-05T08:16:49.396Z,2.30
2024-01-05T08:19:11.580Z,2.20
2024-01-05T08:21:33.168Z,2.13
2024-01-05T08:23:54.688Z,2.20
2024-01-05T08:26:18.891Z,2.40
2024-01-05T08:28:41.540Z,2.20
2024-01-05T08:31:03.163Z,2.40
2024-01-05T08:33:24.541Z,2.23
2024-01-05T08:35:46.362Z,2.20
2024-01-05T08:38:07.789Z,2.10
2024-01-05T08:40:30.018Z,2.30
2024-01-05T08:42:50.569Z,2.20
2024-01-05T08:45:13.528Z,2.10
2024-01-05T08:47:34.145Z,2.30
2024-01-05T08:49:55.693Z,2.10
2024-01-05T08:52:16.911Z,2.10
2024-01-05T08:54:40.565Z,2.30
2024-01-05T08:57:02.162Z,2.13
2024-01-05T08:59:23.344Z,2.30
2024-01-05T09:01:46.795Z,2.30
2024-01-05T09:04:11.770Z,1.93
2024-01-05T09:06:34.184Z,2.10
2024-01-05T09:08:55.783Z,2.30
2024-01-05T09:11:17.861Z,1.90
2024-01-05T09:13:39.640Z,2.20
2024-01-05T09:16:01.851Z,2.10
2024-01-05T09:18:25.363Z,1.90
2024-01-05T09:20:47.079Z,2.00
2024-01-05T09:23:08.653Z,2.20
2024-01-05T09:25:30.461Z,2.37
2024-01-05T09:27:52.062Z,2.10
2024-01-05T09:30:13.724Z,2.20
2024-01-05T09:32:35.321Z,2.20
2024-01-05T09:34:58.026Z,2.40
2024-01-05T09:37:19.496Z,2.30
2024-01-05T09:39:41.605Z,2.23
2024-01-05T09:42:03.493Z,2.33
2024-01-05T09:44:25.738Z,2.17
2024-01-05T09:46:47.407Z,2.20
2024-01-05T09:49:10.146Z,2.13
2024-01-05T09:51:33.191Z,2.20
2024-01-05T09:53:54.529Z,2.10
2024-01-05T09:56:16.434Z,2.10
2024-01-05T09:58:37.993Z,2.00
2024-01-05T10:01:05.651Z,2.13
2024-01-05T10:03:28.373Z,2.07
2024-01-05T10:05:50.111Z,2.10
2024-01-05T10:08:14.438Z,2.13
2024-01-05T10:10:49.891Z,2.20
2024-01-05T10:13:11.243Z,2.10
2024-01-05T10:15:32.775Z,2.20
2024-01-05T10:17:54.226Z,2.20
2024-01-05T10:20:17.754Z,2.10
2024-01-05T10:22:39.073Z,2.20
2024-01-05T10:25:15.652Z,2.10
2024-01-05T10:27:37.277Z,2.00
2024-01-05T10:29:58.887Z,2.10
2024-01-05T10:32:21.551Z,2.10
2024-01-05T10:34:44.750Z,2.03
2024-01-05T10:37:06.739Z,2.10
2024-01-05T10:39:27.666Z,3.10
2024-01-05T10:41:50.380Z,4.50
2024-01-05T10:44:11.936Z,5.03
2024-01-05T10:46:34.278Z,3.37
2024-01-05T10:48:56.588Z,2.97
2024-01-05T10:51:20.199Z,4.40
2024-01-05T10:53:41.836Z,3.93
2024-01-05T10:56:04.192Z,3.20
2024-01-05T10:58:27.119Z,6.43
2024-01-05T11:00:49.658Z,6.60
2024-01-05T11:03:13.007Z,3.73
2024-01-05T11:05:34.603Z,3.90
2024-01-05T11:07:57.320Z,2.83
2024-01-05T11:10:26.903Z,2.90
2024-01-05T11:13:03.591Z,2.90
2024-01-05T11:15:36.905Z,3.77
2024-01-05T11:18:21.393Z,3.23
2024-01-05T11:21:03.850Z,3.13
2024-01-05T11:23:26.460Z,2.53
2024-01-05T11:25:48.248Z,3.70
2024-01-05T11:28:09.880Z,2.90
2024-01-05T11:30:51.385Z,3.07
2024-01-05T11:33:44.890Z,3.03
2024-01-05T11:36:07.246Z,3.30
2024-01-05T11:38:32.445Z,2.77
2024-01-05T11:40:53.261Z,3.40
2024-01-05T11:43:36.564Z,3.33
2024-01-05T11:45:59.438Z,6.03
2024-01-05T11:48:49.406Z,6.93
2024-01-05T11:51:11.846Z,4.93
2024-01-05T11:53:33.333Z,5.40
2024-01-05T11:55:57.310Z,7.67
2024-01-05T11:58:19.687Z,6.17
2024-01-05T12:00:43.938Z,5.63
2024-01-05T12:03:07.540Z,3.80
2024-01-05T12:05:29.078Z,4.37
2024-01-05T12:07:50.572Z,3.13
2024-01-05T12:10:11.876Z,10.30
2024-01-05T12:12:33.365Z,5.50
2024-01-05T12:14:54.509Z,4.63
2024-01-05T12:17:16.363Z,8.17
2024-01-05T12:19:39.313Z,6.33
2024-01-05T12:22:02.454Z,9.00
2024-01-05T12:24:24.104Z,3.50
2024-01-05T12:26:45.983Z,3.83
2024-01-05T12:29:09.420Z,3.40
2024-01-05T12:31:31.433Z,5.07
2024-01-05T12:33:53.729Z,5.27
2024-01-05T12:36:27.194Z,4.93
2024-01-05T12:38:48.584Z,6.67
2024-01-05T12:41:11.095Z,6.10
2024-01-05T12:43:32.627Z,6.77
2024-01-05T12:45:54.683Z,5.83
2024-01-05T12:48:16.898Z,6.60
2024-01-05T12:50:38.163Z,5.57
2024-01-05T12:53:00.915Z,9.80
2024-01-05T12:55:28.806Z,8.33
2024-01-05T12:57:50.044Z,6.53
2024-01-05T13:00:11.914Z,8.30
2024-01-05T13:02:39.119Z,9.27
2024-01-05T13:05:00.912Z,8.07
2024-01-05T13:07:22.340Z,6.80
2024-01-05T13:09:44.162Z,12.03
2024-01-05T13:12:06.814Z,11.33
2024-01-05T13:14:28.293Z,12.10
2024-01-05T13:16:50.130Z,8.70
2024-01-05T13:19:11.980Z,13.93
2024-01-05T13:21:33.444Z,14.80
2024-01-05T13:23:56.117Z,10.80
2024-01-05T13:26:18.775Z,12.80
2024-01-05T13:28:41.391Z,11.57
2024-01-05T13:31:03.542Z,11.17
2024-01-05T13:33:25.500Z,16.30
2024-01-05T13:35:48.820Z,11.50
2024-01-05T13:38:10.262Z,14.67
2024-01-05T13:40:31.684Z,11.10
2024-01-05T13:42:54.166Z,12.30
2024-01-05T13:45:16.158Z,10.27
2024-01-05T13:47:37.721Z,10.80
2024-01-05T13:49:58.882Z,12.43
2024-01-05T13:52:20.613Z,16.03
2024-01-05T13:54:41.839Z,11.70
2024-01-05T13:57:04.084Z,10.13
2024-01-05T13:59:27.073Z,13.30
2024-01-05T14:01:48.383Z,11.23
2024-01-05T14:04:10.078Z,14.30
2024-01-05T14:06:31.333Z,9.37
2024-01-05T14:08:52.733Z,9.03
2024-01-05T14:11:14.431Z,10.30
2024-01-05T14:13:36.660Z,11.83
2024-01-05T14:15:59.189Z,10.00
2024-01-05T14:18:20.872Z,12.53
2024-01-05T14:20:42.543Z,7.63
2024-01-05T14:23:04.327Z,23.40
2024-01-05T14:25:25.885Z,11.07
2024-01-05T14:27:47.192Z,13.23
2024-01-05T14:30:10.075Z,13.87
2024-01-05T14:32:34.115Z,9.77
2024-01-05T14:34:55.645Z,10.00
2024-01-05T14:37:17.562Z,12.83
2024-01-05T14:39:39.029Z,14.70
2024-01-05T14:42:01.433Z,10.43
2024-01-05T14:44:22.610Z,7.57
2024-01-05T14:46:44.161Z,8.10
2024-01-05T14:49:07.575Z,10.47
2024-01-05T14:51:29.192Z,7.63
2024-01-05T14:53:50.331Z,9.30
2024-01-05T14:56:14.793Z,9.57
2024-01-05T14:58:36.599Z,7.53
2024-01-05T15:00:58.244Z,10.83
2024-01-05T15:03:21.113Z,7.13
2024-01-05T15:05:43.967Z,9.03
2024-01-05T15:08:06.825Z,8.90
2024-01-05T15:10:30.083Z,8.67
2024-01-05T15:12:52.422Z,6.77
2024-01-05T15:15:13.866Z,7.57
2024-01-05T15:17:36.562Z,8.73
2024-01-05T15:19:58.264Z,8.67
2024-01-05T15:22:20.868Z,7.30
2024-01-05T15:24:46.256Z,10.43
2024-01-05T15:27:07.574Z,8.00
2024-01-05T15:29:28.811Z,7.83
2024-01-05T15:31:53.024Z,6.17
2024-01-05T15:34:14.548Z,8.70
2024-01-05T15:36:36.574Z,7.03
2024-01-05T15:38:59.543Z,7.13
2024-01-05T15:41:21.379Z,8.40
2024-01-05T15:43:42.851Z,8.33
2024-01-05T15:46:05.493Z,6.87
2024-01-05T15:48:27.006Z,8.13
2024-01-05T15:50:48.582Z,6.17
2024-01-05T15:53:10.046Z,10.20
2024-01-05T15:55:38.097Z,8.43
2024-01-05T15:58:02.719Z,8.63
2024-01-05T16:00:24.119Z,6.63
2024-01-05T16:02:45.414Z,9.63
2024-01-05T16:05:07.707Z,7.80
2024-01-05T16:07:30.028Z,9.53
2024-01-05T16:09:51.838Z,7.47
2024-01-05T16:12:14.700Z,8.83
2024-01-05T16:14:47.225Z,7.83
2024-01-05T16:17:08.781Z,8.57
2024-01-05T16:19:30.413Z,7.07
2024-01-05T16:21:52.185Z,9.23
2024-01-05T16:24:14.029Z,7.20
2024-01-05T16:26:35.586Z,7.33
2024-01-05T16:28:58.483Z,7.37
2024-01-05T16:31:21.055Z,6.97
2024-01-05T16:33:43.058Z,7.07
2024-01-05T16:36:06.931Z,11.57
2024-01-05T16:38:28.190Z,6.03
2024-01-05T16:40:49.474Z,6.80
2024-01-05T16:43:10.870Z,6.07
2024-01-05T16:45:33.587Z,6.67
2024-01-05T16:47:55.084Z,7.00
2024-01-05T16:50:17.057Z,6.50
2024-01-05T16:52:38.608Z,7.53
2024-01-05T16:55:00.218Z,6.30
2024-01-05T16:57:21.591Z,6.00
2024-01-05T16:59:42.901Z,6.67
2024-01-05T17:02:06.180Z,8.67
2024-01-05T17:04:27.546Z,6.07
2024-01-05T17:06:53.152Z,8.47
2024-01-05T17:09:15.342Z,5.87
2024-01-05T17:11:36.958Z,6.23
2024-01-05T17:13:58.481Z,7.43
2024-01-05T17:16:20.195Z,6.77
2024-01-05T17:18:45.833Z,5.43
2024-01-05T17:21:10.065Z,5.50
2024-01-05T17:23:32.184Z,6.50
2024-01-05T17:25:54.472Z,5.10
2024-01-05T17:28:16.128Z,7.40
2024-01-05T17:30:37.752Z,5.33
2024-01-05T17:32:59.555Z,7.87
2024-01-05T17:35:22.183Z,6.10
2024-01-05T17:37:43.653Z,7.40
2024-01-05T17:40:05.878Z,5.63
2024-01-05T17:42:27.500Z,5.77
2024-01-05T17:44:49.378Z,5.53
2024-01-05T17:47:10.719Z,5.67
2024-01-05T17:49:32.021Z,4.73
2024-01-05T17:51:54.697Z,4.40
2024-01-05T17:54:17.658Z,5.63
2024-01-05T17:56:39.061Z,5.27
2024-01-05T17:59:00.813Z,6.37
2024-01-05T18:01:22.521Z,6.67
2024-01-05T18:03:43.006Z,4.70
2024-01-05T18:06:10.080Z,5.23
2024-01-05T18:08:32.787Z,4.43
2024-01-05T18:10:54.048Z,4.47
2024-01-05T18:13:15.571Z,6.57
2024-01-05T18:15:37.496Z,6.57
2024-01-05T18:17:59.304Z,15.70
2024-01-05T18:20:20.669Z,19.65
2024-01-05T18:22:42.103Z,16.80
2024-01-05T18:25:05.346Z,20.00
2024-01-05T18:27:26.881Z,11.47
2024-01-05T18:29:48.200Z,17.33
2024-01-05T18:32:09.646Z,14.97
2024-01-05T18:34:31.890Z,24.33
2024-01-05T18:36:53.270Z,14.77
2024-01-05T18:39:15.203Z,14.00
2024-01-05T18:41:39.608Z,15.98
2024-01-05T18:44:01.547Z,21.80
2024-01-05T18:46:23.505Z,18.80
2024-01-05T18:48:45.476Z,16.87
2024-01-05T18:51:07.379Z,11.73
2024-01-05T18:53:28.518Z,14.40
2024-01-05T18:55:50.638Z,12.57
2024-01-05T18:58:13.679Z,11.83
2024-01-05T19:00:35.589Z,12.77
2024-01-05T19:02:56.820Z,13.77
2024-01-05T19:05:18.531Z,14.47
2024-01-05T19:07:39.828Z,11.57
2024-01-05T19:10:01.021Z,9.97
2024-01-05T19:12:22.788Z,11.30
2024-01-05T19:14:45.438Z,11.37
2024-01-05T19:17:07.522Z,10.73
2024-01-05T19:19:29.403Z,10.90
2024-01-05T19:21:56.444Z,10.47
2024-01-05T19:24:19.456Z,11.20
2024-01-05T19:26:41.851Z,17.73
2024-01-05T19:29:03.867Z,12.43
2024-01-05T19:31:27.243Z,10.53
2024-01-05T19:33:49.299Z,10.03
2024-01-05T19:36:13.904Z,10.70
2024-01-05T19:38:35.570Z,10.97
2024-01-05T19:40:56.818Z,10.13
2024-01-05T19:43:18.101Z,10.03
2024-01-05T19:45:39.665Z,9.47
2024-01-05T19:48:02.934Z,9.40
2024-01-05T19:50:24.987Z,9.53
2024-01-05T19:52:46.313Z,12.30
2024-01-05T19:55:08.654Z,10.37
2024-01-05T19:57:30.134Z,9.43
2024-01-05T19:59:51.537Z,9.77
2024-01-05T20:02:13.047Z,9.97
2024-01-05T20:04:35.901Z,11.03
2024-01-05T20:06:57.697Z,11.60
2024-01-05T20:09:19.936Z,10.33
2024-01-05T20:11:41.578Z,9.27
2024-01-05T20:14:03.021Z,9.10
2024-01-05T20:16:24.520Z,9.53
2024-01-05T20:18:47.341Z,10.27
2024-01-05T20:21:15.648Z,10.10
2024-01-05T20:23:38.253Z,9.13
2024-01-05T20:25:59.476Z,9.37
2024-01-05T20:28:21.199Z,9.43
2024-01-05T20:30:44.067Z,8.07
2024-01-05T20:33:06.673Z,10.07
2024-01-05T20:35:28.075Z,9.60
2024-01-05T20:37:50.960Z,8.57
2024-01-05T20:40:12.641Z,8.27
2024-01-05T20:42:34.376Z,8.03
2024-01-05T20:44:55.936Z,8.60
2024-01-05T20:47:17.630Z,8.53
2024-01-05T20:49:39.039Z,10.47
2024-01-05T20:52:00.982Z,9.73
2024-01-05T20:54:23.682Z,8.23
2024-01-05T20:56:44.741Z,8.37
2024-01-05T20:59:06.073Z,8.30
2024-01-05T21:01:28.298Z,9.13
2024-01-05T21:03:49.644Z,8.03
2024-01-05T21:06:10.941Z,8.53
2024-01-05T21:08:33.605Z,8.10
2024-01-05T21:10:56.735Z,8.40
2024-01-05T21:13:18.424Z,7.57
2024-01-05T21:15:40.071Z,8.10
2024-01-05T21:18:01.593Z,7.77
2024-01-05T21:20:23.300Z,9.13
2024-01-05T21:22:44.999Z,7.37
2024-01-05T21:25:07.634Z,7.57
2024-01-05T21:27:30.572Z,7.97
2024-01-05T21:29:51.836Z,7.37
2024-01-05T21:32:13.374Z,9.17
2024-01-05T21:34:34.976Z,7.13
2024-01-05T21:36:56.764Z,8.73
2024-01-05T21:39:18.672Z,7.37
2024-01-05T21:41:40.817Z,9.00
2024-01-05T21:44:03.636Z,8.53
2024-01-05T21:46:25.204Z,7.30
2024-01-05T21:48:46.601Z,7.70
2024-01-05T21:51:07.973Z,7.87
2024-01-05T21:53:29.370Z,7.00
2024-01-05T21:55:51.560Z,8.07
2024-01-05T21:58:13.935Z,8.30
2024-01-05T22:00:37.438Z,8.67
2024-01-05T22:02:58.807Z,11.07
2024-01-05T22:05:20.775Z,8.47
2024-01-05T22:07:42.087Z,8.17
2024-01-05T22:10:05.531Z,8.73
2024-01-05T22:12:27.484Z,9.23
2024-01-05T22:14:48.920Z,10.20
2024-01-05T22:17:12.065Z,8.10
2024-01-05T22:19:33.430Z,9.50
2024-01-05T22:21:55.187Z,8.10
2024-01-05T22:24:16.392Z,7.83
2024-01-05T22:26:37.940Z,9.00
2024-01-05T22:28:59.553Z,9.40
2024-01-05T22:31:21.124Z,9.93
2024-01-05T22:33:44.630Z,8.70
2024-01-05T22:36:10.448Z,8.20
2024-01-05T22:38:33.779Z,18.10
2024-01-05T22:40:56.826Z,7.90
2024-01-05T22:43:18.264Z,7.67
2024-01-05T22:45:39.496Z,8.53
2024-01-05T22:48:00.754Z,8.97
2024-01-05T22:50:24.046Z,8.00
2024-01-05T22:52:45.697Z,8.50
2024-01-05T22:55:09.928Z,8.93
2024-01-05T22:57:31.425Z,8.63
2024-01-05T22:59:52.703Z,8.13
2024-01-05T23:02:14.265Z,8.33
2024-01-05T23:04:35.742Z,7.97
2024-01-05T23:06:58.695Z,8.67
2024-01-05T23:09:20.408Z,7.57
2024-01-05T23:11:42.041Z,10.33
2024-01-05T23:14:03.400Z,8.73
2024-01-05T23:16:24.623Z,10.40
2024-01-05T23:18:46.171Z,8.40
2024-01-05T23:21:07.936Z,9.73
2024-01-05T23:23:30.635Z,8.90
2024-01-05T23:25:52.117Z,9.00
2024-01-05T23:28:16.270Z,9.13
2024-01-05T23:30:37.775Z,8.07
2024-01-05T23:32:58.984Z,8.70
2024-01-05T23:35:20.291Z,8.40
2024-01-05T23:37:41.869Z,8.80
2024-01-05T23:40:06.080Z,11.87
2024-01-05T23:42:27.510Z,8.48
2024-01-05T23:44:49.359Z,11.63
2024-01-05T23:47:10.690Z,8.87
2024-01-05T23:49:32.241Z,8.07
2024-01-05T23:51:54.132Z,8.50
2024-01-05T23:54:15.399Z,10.93
2024-01-05T23:56:38.234Z,7.67
2024-01-05T23:58:59.567Z,7.10
